This is the latest recevied weather packets stored in our database for station/object OE6PLD-13. If no packets are shown the sender has not sent any weather packets the latest 1 day(s).
| Time | Temp. | Humidity | Pressure | Rain* | Wind** | Luminosity | Snow |
|---|---|---|---|---|---|---|---|
| 1777986259 | 24.44° C | 42% | 1013.9 hPa | 0.76 mm | 1.79 m/s, 266° | 560 W/m² | - |
| 1777986075 | 24.44° C | 42% | 1013.5 hPa | 0.76 mm | 0.89 m/s, 266° | 614 W/m² | - |
| 1777985892 | 24.44° C | 42% | 1013.8 hPa | 0.76 mm | 1.34 m/s, 266° | 613 W/m² | - |
| 1777985709 | 23.89° C | 42% | 1013.9 hPa | 0.76 mm | 0 m/s | 631 W/m² | - |
| 1777985525 | 23.33° C | 43% | 1013.9 hPa | 0.76 mm | 3.58 m/s, 266° | 527 W/m² | - |
| 1777985342 | 22.78° C | 44% | 1013.9 hPa | 0.76 mm | 3.13 m/s, 266° | 339 W/m² | - |
| 1777985158 | 23.89° C | 44% | 1013.6 hPa | 0.76 mm | 3.13 m/s, 266° | 261 W/m² | - |
| 1777984975 | 24.44° C | 43% | 1013.8 hPa | 0.76 mm | 1.34 m/s, 266° | 258 W/m² | - |
| 1777984792 | 24.44° C | 42% | 1013.6 hPa | 0.76 mm | 1.34 m/s, 266° | 353 W/m² | - |
| 1777984608 | 23.89° C | 43% | 1013.6 hPa | 0.76 mm | 0 m/s | 403 W/m² | - |
| 1777984425 | 23.89° C | 43% | 1013.6 hPa | 0.76 mm | 1.34 m/s, 266° | 308 W/m² | - |
| 1777984242 | 23.89° C | 42% | 1013.8 hPa | 0.76 mm | 1.34 m/s, 266° | 349 W/m² | - |
| 1777984058 | 23.89° C | 41% | 1013.7 hPa | 0.76 mm | 1.79 m/s, 266° | 297 W/m² | - |
| 1777983875 | 24.44° C | 41% | 1013.6 hPa | 0.76 mm | 4.92 m/s, 266° | 275 W/m² | - |
| 1777983692 | 24.44° C | 39% | 1013.6 hPa | 0.76 mm | 1.34 m/s, 266° | 350 W/m² | - |
| 1777983508 | 24.44° C | 38% | 1013.7 hPa | 0.76 mm | 1.34 m/s, 266° | 565 W/m² | - |
| 1777983325 | 25° C | 38% | 1013.6 hPa | 0.76 mm | 2.68 m/s, 266° | 356 W/m² | - |
| 1777983142 | 25.56° C | 37% | 1013.5 hPa | 0.76 mm | 7.15 m/s, 266° | 300 W/m² | - |
| 1777982958 | 26.11° C | 35% | 1013.5 hPa | 0.76 mm | 1.34 m/s, 266° | 500 W/m² | - |
| 1777982775 | 25.56° C | 35% | 1013.4 hPa | 0.76 mm | 1.34 m/s, 266° | 591 W/m² | - |
| 1777982592 | 25.56° C | 35% | 1013.4 hPa | 0.76 mm | 3.13 m/s, 266° | 452 W/m² | - |
| 1777982408 | 26.11° C | 35% | 1012 hPa | 0.76 mm | 4.02 m/s, 266° | 432 W/m² | - |
| 1777982225 | 26.11° C | 33% | 1011.7 hPa | 0.76 mm | 2.24 m/s, 266° | 446 W/m² | - |
| 1777982041 | 26.11° C | 34% | 1012 hPa | 0.76 mm | 2.24 m/s, 266° | 592 W/m² | - |
| 1777981858 | 26.11° C | 33% | 1011.9 hPa | 0.76 mm | 1.34 m/s, 266° | 582 W/m² | - |
* Rain latest hour (hover to see other rain measurements)
** Current wind speed in m/s (hover to see current wind gust speed)